createdAt,value
2023-04-08T00:00:25.759Z,20.13
2023-04-08T00:02:55.179Z,18.93
2023-04-08T00:05:22.068Z,18.70
2023-04-08T00:07:48.809Z,15.40
2023-04-08T00:10:17.730Z,17.23
2023-04-08T00:12:44.977Z,16.37
2023-04-08T00:15:11.765Z,16.20
2023-04-08T00:17:38.541Z,17.73
2023-04-08T00:20:06.034Z,18.53
2023-04-08T00:22:35.772Z,14.63
2023-04-08T00:25:02.935Z,15.87
2023-04-08T00:27:31.830Z,14.63
2023-04-08T00:30:00.152Z,16.17
2023-04-08T00:32:29.961Z,14.90
2023-04-08T00:34:56.750Z,14.80
2023-04-08T00:37:25.068Z,15.63
2023-04-08T00:39:54.036Z,18.17
2023-04-08T00:42:22.087Z,16.33
2023-04-08T00:44:51.177Z,16.13
2023-04-08T00:47:17.952Z,14.77
2023-04-08T00:49:44.804Z,14.17
2023-04-08T00:52:11.671Z,14.40
2023-04-08T00:54:38.665Z,15.80
2023-04-08T00:57:06.285Z,13.83
2023-04-08T00:59:33.401Z,13.93
2023-04-08T01:02:19.376Z,14.73
2023-04-08T01:05:07.074Z,15.07
2023-04-08T01:07:47.936Z,16.90
2023-04-08T01:10:31.631Z,16.47
2023-04-08T01:13:00.303Z,13.97
2023-04-08T01:15:28.022Z,15.50
2023-04-08T01:17:56.629Z,14.63
2023-04-08T01:20:26.981Z,15.47
2023-04-08T01:23:18.235Z,15.73
2023-04-08T01:25:53.271Z,14.23
2023-04-08T01:28:23.724Z,17.37
2023-04-08T01:30:50.673Z,16.93
2023-04-08T01:33:18.516Z,17.70
2023-04-08T01:35:48.379Z,17.10
2023-04-08T01:38:21.858Z,16.20
2023-04-08T01:40:51.182Z,16.13
2023-04-08T01:43:18.087Z,15.80
2023-04-08T01:45:47.633Z,16.37
2023-04-08T01:48:16.729Z,16.03
2023-04-08T01:50:44.214Z,14.67
2023-04-08T01:53:13.604Z,16.30
2023-04-08T01:55:41.130Z,19.60
2023-04-08T01:58:08.105Z,16.17
2023-04-08T02:00:35.076Z,16.53
2023-04-08T02:03:06.577Z,17.23
2023-04-08T02:05:34.385Z,15.83
2023-04-08T02:08:01.403Z,17.57
2023-04-08T02:10:28.323Z,17.43
2023-04-08T02:12:56.021Z,22.23
2023-04-08T02:15:22.873Z,15.40
2023-04-08T02:17:59.276Z,17.53
2023-04-08T02:20:34.424Z,17.53
2023-04-08T02:23:10.996Z,17.60
2023-04-08T02:25:40.737Z,16.77
2023-04-08T02:28:08.273Z,16.33
2023-04-08T02:30:35.810Z,19.50
2023-04-08T02:33:04.661Z,20.30
2023-04-08T02:35:31.935Z,18.13
2023-04-08T02:37:58.724Z,17.77
2023-04-08T02:40:31.775Z,16.47
2023-04-08T02:42:58.623Z,18.57
2023-04-08T02:45:35.806Z,24.23
2023-04-08T02:48:03.224Z,18.13
2023-04-08T02:50:29.989Z,18.03
2023-04-08T02:53:01.503Z,19.33
2023-04-08T02:55:28.344Z,18.30
2023-04-08T02:57:55.192Z,17.97
2023-04-08T03:00:24.676Z,19.03
2023-04-08T03:02:51.671Z,17.73
2023-04-08T03:05:21.791Z,17.60
2023-04-08T03:07:51.220Z,20.13
2023-04-08T03:10:18.018Z,17.47
2023-04-08T03:12:44.768Z,18.03
2023-04-08T03:15:11.557Z,15.63
2023-04-08T03:17:38.428Z,19.90
2023-04-08T03:20:06.150Z,18.63
2023-04-08T03:22:36.060Z,18.27
2023-04-08T03:25:05.969Z,16.63
2023-04-08T03:27:34.951Z,18.67
2023-04-08T03:30:02.106Z,18.27
2023-04-08T03:32:31.130Z,19.50
2023-04-08T03:35:00.044Z,19.50
2023-04-08T03:37:26.827Z,22.07
2023-04-08T03:39:54.838Z,19.27
2023-04-08T03:42:22.131Z,19.40
2023-04-08T03:44:49.047Z,19.03
2023-04-08T03:47:16.240Z,19.73
2023-04-08T03:49:42.986Z,22.07
2023-04-08T03:52:09.761Z,23.37
2023-04-08T03:54:41.235Z,24.03
2023-04-08T03:57:12.034Z,29.47
2023-04-08T03:59:41.159Z,28.27
2023-04-08T04:02:08.712Z,30.20
2023-04-08T04:04:36.999Z,30.10
2023-04-08T04:07:03.839Z,25.10
2023-04-08T04:09:33.152Z,25.17
2023-04-08T04:12:00.512Z,23.90
2023-04-08T04:14:32.007Z,24.70
2023-04-08T04:17:01.108Z,24.60
2023-04-08T04:19:31.501Z,26.00
2023-04-08T04:21:58.302Z,19.73
2023-04-08T04:24:27.658Z,19.10
2023-04-08T04:26:57.374Z,20.97
2023-04-08T04:29:24.532Z,20.07
2023-04-08T04:31:55.906Z,22.50
2023-04-08T04:34:24.860Z,16.97
2023-04-08T04:36:53.824Z,18.87
2023-04-08T04:39:20.681Z,21.50
2023-04-08T04:41:49.176Z,20.50
2023-04-08T04:44:18.538Z,18.43
2023-04-08T04:46:46.003Z,20.20
2023-04-08T04:49:12.783Z,19.23
2023-04-08T04:51:39.542Z,20.67
2023-04-08T04:54:06.529Z,19.33
2023-04-08T04:56:33.348Z,22.17
2023-04-08T04:59:02.854Z,21.13
2023-04-08T05:01:32.558Z,19.30
2023-04-08T05:03:59.833Z,21.33
2023-04-08T05:06:27.602Z,19.30
2023-04-08T05:08:54.816Z,19.03
2023-04-08T05:11:24.284Z,20.00
2023-04-08T05:13:53.383Z,20.73
2023-04-08T05:16:20.171Z,19.83
2023-04-08T05:18:49.387Z,17.67
2023-04-08T05:21:16.373Z,21.47
2023-04-08T05:23:45.738Z,18.87
2023-04-08T05:26:16.325Z,17.30
2023-04-08T05:28:43.339Z,20.13
2023-04-08T05:31:11.961Z,20.63
2023-04-08T05:33:41.310Z,21.50
2023-04-08T05:36:08.516Z,18.37
2023-04-08T05:38:35.359Z,19.10
2023-04-08T05:41:02.664Z,20.33
2023-04-08T05:43:35.620Z,22.63
2023-04-08T05:46:11.604Z,22.50
2023-04-08T05:48:40.979Z,17.87
2023-04-08T05:51:08.182Z,18.23
2023-04-08T05:53:37.002Z,19.50
2023-04-08T05:56:03.978Z,13.87
2023-04-08T05:58:33.376Z,15.83
2023-04-08T06:01:00.885Z,18.47
2023-04-08T06:03:28.152Z,17.50
2023-04-08T06:05:59.562Z,17.23
2023-04-08T06:08:26.346Z,14.43
2023-04-08T06:10:55.609Z,18.00
2023-04-08T06:13:22.856Z,39.00
2023-04-08T06:15:49.946Z,17.17
2023-04-08T06:18:17.347Z,17.40
2023-04-08T06:20:44.628Z,19.53
2023-04-08T06:23:11.483Z,21.03
2023-04-08T06:25:38.867Z,20.23
2023-04-08T06:28:05.879Z,22.80
2023-04-08T06:30:33.254Z,18.17
2023-04-08T06:33:00.421Z,20.73
2023-04-08T06:35:28.330Z,21.20
2023-04-08T06:37:55.329Z,19.30
2023-04-08T06:40:22.116Z,19.97
2023-04-08T06:42:49.137Z,16.17
2023-04-08T06:45:16.026Z,18.93
2023-04-08T06:47:42.857Z,18.30
2023-04-08T06:50:10.368Z,17.53
2023-04-08T06:52:37.106Z,18.53
2023-04-08T06:55:06.739Z,16.97
2023-04-08T06:57:33.482Z,15.40
2023-04-08T07:00:00.692Z,14.23
2023-04-08T07:02:27.912Z,16.60
2023-04-08T07:04:55.210Z,13.70
2023-04-08T07:07:24.249Z,11.20
2023-04-08T07:09:51.522Z,13.13
2023-04-08T07:12:18.282Z,13.43
2023-04-08T07:14:45.434Z,13.67
2023-04-08T07:17:14.495Z,15.40
2023-04-08T07:19:45.989Z,15.07
2023-04-08T07:22:14.912Z,18.73
2023-04-08T07:24:43.480Z,13.20
2023-04-08T07:27:13.013Z,13.97
2023-04-08T07:29:44.617Z,15.23
2023-04-08T07:32:13.984Z,21.13
2023-04-08T07:34:41.190Z,13.77
2023-04-08T07:37:08.367Z,17.80
2023-04-08T07:39:37.527Z,13.63
2023-04-08T07:42:06.952Z,14.67
2023-04-08T07:44:36.407Z,13.97
2023-04-08T07:47:05.300Z,15.83
2023-04-08T07:49:34.193Z,15.10
2023-04-08T07:52:01.503Z,14.90
2023-04-08T07:54:28.741Z,15.87
2023-04-08T07:56:57.005Z,16.57
2023-04-08T07:59:23.824Z,14.30
2023-04-08T08:01:50.814Z,14.60
2023-04-08T08:04:25.834Z,13.90
2023-04-08T08:06:52.977Z,14.00
2023-04-08T08:09:19.789Z,17.10
2023-04-08T08:11:46.580Z,15.03
2023-04-08T08:14:16.010Z,15.90
2023-04-08T08:16:44.736Z,15.03
2023-04-08T08:19:14.655Z,11.57
2023-04-08T08:21:42.021Z,11.27
2023-04-08T08:24:11.408Z,11.60
2023-04-08T08:26:40.755Z,14.87
2023-04-08T08:29:09.067Z,12.40
2023-04-08T08:31:40.730Z,13.30
2023-04-08T08:34:08.050Z,12.57
2023-04-08T08:36:35.512Z,12.17
2023-04-08T08:39:02.814Z,14.07
2023-04-08T08:41:35.248Z,11.77
2023-04-08T08:44:06.417Z,15.43
2023-04-08T08:46:35.870Z,13.20
2023-04-08T08:49:02.816Z,13.73
2023-04-08T08:51:29.656Z,15.13
2023-04-08T08:53:58.643Z,14.70
2023-04-08T08:56:25.799Z,16.23
2023-04-08T08:58:53.071Z,14.50
2023-04-08T09:01:38.556Z,14.80
2023-04-08T09:04:16.723Z,15.73
2023-04-08T09:06:52.621Z,15.83
2023-04-08T09:09:21.599Z,13.40
2023-04-08T09:11:48.874Z,14.77
2023-04-08T09:14:22.383Z,13.53
2023-04-08T09:16:52.118Z,13.73
2023-04-08T09:19:19.388Z,14.57
2023-04-08T09:21:46.319Z,13.97
2023-04-08T09:24:28.932Z,12.03
2023-04-08T09:26:56.651Z,13.03
2023-04-08T09:29:30.059Z,15.30
2023-04-08T09:31:59.353Z,13.77
2023-04-08T09:34:27.537Z,16.37
2023-04-08T09:36:59.685Z,13.60
2023-04-08T09:39:26.536Z,13.30
2023-04-08T09:41:53.800Z,13.07
2023-04-08T09:44:21.356Z,15.83
2023-04-08T09:46:56.834Z,14.47
2023-04-08T09:49:46.907Z,14.13
2023-04-08T09:52:40.804Z,12.43
2023-04-08T09:55:09.610Z,13.77
2023-04-08T09:57:56.724Z,13.53
2023-04-08T10:00:28.546Z,13.07
2023-04-08T10:02:57.357Z,14.67
2023-04-08T10:05:25.087Z,12.87
2023-04-08T10:07:52.334Z,12.97
2023-04-08T10:10:19.325Z,12.67
2023-04-08T10:12:46.200Z,11.03
2023-04-08T10:15:26.366Z,9.63
2023-04-08T10:18:18.616Z,11.23
2023-04-08T10:20:49.372Z,12.27
2023-04-08T10:23:17.241Z,11.30
2023-04-08T10:25:45.247Z,10.80
2023-04-08T10:28:12.398Z,8.10
2023-04-08T10:30:48.594Z,10.23
2023-04-08T10:33:19.235Z,11.03
2023-04-08T10:35:53.493Z,12.13
2023-04-08T10:38:20.872Z,12.20
2023-04-08T10:40:51.376Z,8.60
2023-04-08T10:43:18.356Z,9.50
2023-04-08T10:45:51.469Z,11.63
2023-04-08T10:48:24.921Z,10.57
2023-04-08T10:50:56.236Z,9.93
2023-04-08T10:53:27.265Z,8.37
2023-04-08T10:55:54.679Z,7.83
2023-04-08T10:58:24.106Z,9.23
2023-04-08T11:00:50.898Z,9.57
2023-04-08T11:03:17.946Z,8.03
2023-04-08T11:05:49.523Z,8.33
2023-04-08T11:08:20.848Z,8.87
2023-04-08T11:10:48.279Z,7.80
2023-04-08T11:13:15.468Z,8.00
2023-04-08T11:15:44.834Z,7.00
2023-04-08T11:18:14.617Z,7.57
2023-04-08T11:20:42.256Z,6.53
2023-04-08T11:23:14.224Z,8.10
2023-04-08T11:25:42.302Z,6.70
2023-04-08T11:28:11.456Z,6.73
2023-04-08T11:30:43.986Z,5.03
2023-04-08T11:33:10.969Z,5.60
2023-04-08T11:35:41.928Z,5.43
2023-04-08T11:38:09.309Z,6.57
2023-04-08T11:40:36.095Z,8.23
2023-04-08T11:43:13.258Z,6.53
2023-04-08T11:45:40.690Z,6.35
2023-04-08T11:48:15.284Z,5.80
2023-04-08T11:50:45.010Z,5.30
2023-04-08T11:53:19.826Z,4.57
2023-04-08T11:55:48.806Z,5.90
2023-04-08T11:58:17.928Z,6.70
2023-04-08T12:00:47.546Z,5.57
2023-04-08T12:03:19.110Z,5.38
2023-04-08T12:05:46.513Z,7.43
2023-04-08T12:08:16.226Z,5.45
2023-04-08T12:10:45.880Z,5.28
2023-04-08T12:13:12.647Z,5.85
2023-04-08T12:15:39.853Z,5.80
2023-04-08T12:18:09.211Z,6.10
2023-04-08T12:20:36.078Z,6.83
2023-04-08T12:23:05.638Z,5.33
2023-04-08T12:25:32.481Z,5.10
2023-04-08T12:27:59.720Z,6.67
2023-04-08T12:30:26.897Z,5.60
2023-04-08T12:32:55.391Z,6.07
2023-04-08T12:35:22.339Z,6.43
2023-04-08T12:37:49.520Z,6.47
2023-04-08T12:40:19.453Z,6.30
2023-04-08T12:42:48.882Z,5.60
2023-04-08T12:45:18.153Z,5.30
2023-04-08T12:47:45.449Z,4.83
2023-04-08T12:50:12.306Z,7.33
2023-04-08T12:52:39.135Z,5.77
2023-04-08T12:55:06.372Z,8.37
2023-04-08T12:57:33.175Z,5.73
2023-04-08T13:00:00.021Z,5.80
2023-04-08T13:02:27.451Z,4.70
2023-04-08T13:04:55.369Z,5.00
2023-04-08T13:07:22.132Z,5.43
2023-04-08T13:09:51.223Z,7.60
2023-04-08T13:12:18.118Z,5.03
2023-04-08T13:14:45.312Z,6.10
2023-04-08T13:17:14.547Z,5.77
2023-04-08T13:19:41.553Z,4.70
2023-04-08T13:22:15.508Z,6.87
2023-04-08T13:24:42.989Z,5.03
2023-04-08T13:27:11.885Z,5.70
2023-04-08T13:29:40.864Z,4.70
2023-04-08T13:32:10.137Z,6.20
2023-04-08T13:34:39.300Z,7.43
2023-04-08T13:37:06.145Z,6.37
2023-04-08T13:39:35.654Z,5.17
2023-04-08T13:42:02.909Z,6.30
2023-04-08T13:44:30.095Z,5.33
2023-04-08T13:46:56.932Z,5.17
2023-04-08T13:49:24.141Z,5.63
2023-04-08T13:51:50.944Z,7.03
2023-04-08T13:54:18.145Z,6.30
2023-04-08T13:56:45.426Z,6.27
2023-04-08T13:59:12.303Z,7.30
2023-04-08T14:01:40.780Z,8.97
2023-04-08T14:04:09.827Z,6.23
2023-04-08T14:06:36.645Z,6.80
2023-04-08T14:09:03.918Z,7.57
2023-04-08T14:11:30.744Z,6.87
2023-04-08T14:13:57.947Z,5.77
2023-04-08T14:16:25.028Z,6.83
2023-04-08T14:18:52.020Z,7.27
2023-04-08T14:21:19.172Z,6.70
2023-04-08T14:23:48.376Z,7.40
2023-04-08T14:26:15.904Z,7.77
2023-04-08T14:28:43.179Z,8.50
2023-04-08T14:31:10.464Z,7.63
2023-04-08T14:33:42.254Z,7.67
2023-04-08T14:36:09.845Z,7.67
2023-04-08T14:38:36.674Z,8.47
2023-04-08T14:41:03.498Z,7.97
2023-04-08T14:43:32.486Z,7.20
2023-04-08T14:45:59.246Z,6.73
2023-04-08T14:48:26.434Z,7.20
2023-04-08T14:50:55.970Z,5.77
2023-04-08T14:53:23.508Z,5.87
2023-04-08T14:55:50.399Z,8.60
2023-04-08T14:58:19.985Z,5.43
2023-04-08T15:00:51.480Z,4.67
2023-04-08T15:03:18.968Z,5.43
2023-04-08T15:05:46.216Z,6.77
2023-04-08T15:08:15.690Z,5.40
2023-04-08T15:10:42.650Z,5.40
2023-04-08T15:13:09.425Z,5.53
2023-04-08T15:15:38.755Z,5.37
2023-04-08T15:18:05.647Z,4.20
2023-04-08T15:20:32.886Z,4.53
2023-04-08T15:22:59.671Z,6.67
2023-04-08T15:25:28.941Z,3.80
2023-04-08T15:27:58.409Z,4.87
2023-04-08T15:30:26.429Z,4.37
2023-04-08T15:32:57.466Z,4.97
2023-04-08T15:35:27.238Z,5.00
2023-04-08T15:37:54.200Z,5.67
2023-04-08T15:40:21.327Z,5.60
2023-04-08T15:42:48.106Z,5.90
2023-04-08T15:45:15.333Z,5.73
2023-04-08T15:47:42.254Z,5.53
2023-04-08T15:50:10.071Z,6.73
2023-04-08T15:52:36.933Z,5.83
2023-04-08T15:55:04.176Z,7.23
2023-04-08T15:57:32.361Z,7.80
2023-04-08T15:59:59.548Z,6.40
2023-04-08T16:02:28.707Z,8.70
2023-04-08T16:04:55.910Z,7.97
2023-04-08T16:07:22.753Z,7.80
2023-04-08T16:09:49.537Z,9.73
2023-04-08T16:12:16.764Z,9.47
2023-04-08T16:14:43.985Z,9.57
2023-04-08T16:17:11.332Z,8.93
2023-04-08T16:19:38.498Z,6.07
2023-04-08T16:22:07.884Z,8.53
2023-04-08T16:24:37.644Z,8.77
2023-04-08T16:27:06.895Z,6.23
2023-04-08T16:29:35.922Z,6.13
2023-04-08T16:32:02.777Z,7.03
2023-04-08T16:34:31.892Z,6.47
2023-04-08T16:36:58.662Z,15.10
2023-04-08T16:39:27.649Z,7.70
2023-04-08T16:41:54.851Z,7.00
2023-04-08T16:44:21.633Z,6.47
2023-04-08T16:46:48.461Z,7.17
2023-04-08T16:49:17.612Z,7.17
2023-04-08T16:51:47.604Z,7.23
2023-04-08T16:54:14.346Z,7.70
2023-04-08T16:56:45.489Z,6.03
2023-04-08T16:59:13.009Z,6.57
2023-04-08T17:01:39.882Z,8.97
2023-04-08T17:04:06.746Z,8.70
2023-04-08T17:06:37.707Z,10.53
2023-04-08T17:09:05.079Z,5.60
2023-04-08T17:11:32.312Z,6.33
2023-04-08T17:13:59.522Z,7.80
2023-04-08T17:16:26.324Z,9.33
2023-04-08T17:18:53.582Z,7.07
2023-04-08T17:21:20.408Z,7.87
2023-04-08T17:23:50.582Z,8.37
2023-04-08T17:26:17.630Z,7.57
2023-04-08T17:28:44.890Z,9.37
2023-04-08T17:31:11.712Z,12.37
2023-04-08T17:33:38.482Z,9.00
2023-04-08T17:36:08.287Z,7.70
2023-04-08T17:38:39.681Z,8.33
2023-04-08T17:41:08.172Z,7.03
2023-04-08T17:43:34.887Z,8.30
2023-04-08T17:46:06.368Z,9.23
2023-04-08T17:48:33.248Z,7.80
2023-04-08T17:51:07.922Z,7.77
2023-04-08T17:53:34.874Z,8.27
2023-04-08T17:56:05.439Z,6.97
2023-04-08T17:58:32.262Z,9.37
2023-04-08T18:01:06.520Z,9.37
2023-04-08T18:03:38.133Z,10.93
2023-04-08T18:06:12.789Z,8.60
2023-04-08T18:08:39.984Z,8.63
2023-04-08T18:11:07.005Z,8.70
2023-04-08T18:13:33.838Z,10.20
2023-04-08T18:16:00.774Z,7.97
2023-04-08T18:18:29.970Z,12.70
2023-04-08T18:20:57.138Z,10.67
2023-04-08T18:23:24.359Z,10.23
2023-04-08T18:25:51.317Z,8.83
2023-04-08T18:28:22.478Z,8.53
2023-04-08T18:30:53.081Z,8.77
2023-04-08T18:33:20.235Z,8.77
2023-04-08T18:35:49.565Z,9.80
2023-04-08T18:38:17.043Z,9.17
2023-04-08T18:40:46.204Z,10.17
2023-04-08T18:43:15.639Z,11.83
2023-04-08T18:45:44.680Z,9.13
2023-04-08T18:48:12.419Z,11.30
2023-04-08T18:50:39.217Z,10.50
2023-04-08T18:53:06.425Z,8.57
2023-04-08T18:55:36.006Z,10.50
2023-04-08T18:58:03.506Z,8.60
2023-04-08T19:00:30.879Z,8.83
2023-04-08T19:02:58.447Z,11.53
2023-04-08T19:05:25.479Z,10.37
2023-04-08T19:07:53.049Z,10.00
2023-04-08T19:10:20.860Z,10.53
2023-04-08T19:12:47.670Z,13.37
2023-04-08T19:15:19.120Z,11.13
2023-04-08T19:17:49.326Z,9.87
2023-04-08T19:20:16.203Z,18.63
2023-04-08T19:22:43.046Z,15.77
2023-04-08T19:25:10.660Z,9.97
2023-04-08T19:27:40.030Z,12.03
2023-04-08T19:30:07.394Z,11.07
2023-04-08T19:32:36.672Z,12.70
2023-04-08T19:35:04.084Z,13.10
2023-04-08T19:37:31.852Z,13.13
2023-04-08T19:39:59.185Z,13.77
2023-04-08T19:42:26.298Z,13.80
2023-04-08T19:44:53.353Z,14.83
2023-04-08T19:47:20.366Z,12.90
2023-04-08T19:49:47.452Z,13.10
2023-04-08T19:52:14.806Z,13.87
2023-04-08T19:54:46.024Z,11.70
2023-04-08T19:57:15.297Z,12.47
2023-04-08T19:59:44.525Z,12.00
2023-04-08T20:02:14.519Z,13.80
2023-04-08T20:04:42.011Z,14.57
2023-04-08T20:07:13.719Z,15.03
2023-04-08T20:09:40.864Z,13.87
2023-04-08T20:12:13.321Z,13.27
2023-04-08T20:14:42.091Z,12.10
2023-04-08T20:17:11.600Z,13.67
2023-04-08T20:19:38.515Z,12.23
2023-04-08T20:22:08.397Z,12.10
2023-04-08T20:24:37.808Z,14.90
2023-04-08T20:27:06.839Z,14.97
2023-04-08T20:29:34.544Z,13.77
2023-04-08T20:32:01.766Z,12.33
2023-04-08T20:34:28.949Z,13.40
2023-04-08T20:36:58.350Z,12.10
2023-04-08T20:39:30.004Z,13.23
2023-04-08T20:41:59.982Z,13.63
2023-04-08T20:44:27.472Z,11.93
2023-04-08T20:46:54.944Z,12.83
2023-04-08T20:49:21.802Z,12.10
2023-04-08T20:51:49.099Z,13.37
2023-04-08T20:54:15.893Z,14.27
2023-04-08T20:56:43.170Z,14.80
2023-04-08T20:59:09.924Z,14.03
2023-04-08T21:01:36.691Z,13.10
2023-04-08T21:04:04.922Z,15.60
2023-04-08T21:06:32.544Z,11.60
2023-04-08T21:08:59.329Z,13.73
2023-04-08T21:11:28.405Z,13.23
2023-04-08T21:13:58.182Z,12.47
2023-04-08T21:16:25.466Z,12.23
2023-04-08T21:18:52.490Z,14.03
2023-04-08T21:21:19.913Z,14.00
2023-04-08T21:23:49.148Z,17.10
2023-04-08T21:26:16.453Z,13.23
2023-04-08T21:28:44.109Z,11.73
2023-04-08T21:31:13.752Z,13.20
2023-04-08T21:33:43.016Z,13.23
2023-04-08T21:36:10.417Z,14.63
2023-04-08T21:38:37.653Z,14.13
2023-04-08T21:41:06.883Z,13.67
2023-04-08T21:43:34.082Z,15.17
2023-04-08T21:46:00.898Z,12.97
2023-04-08T21:48:30.650Z,10.50
2023-04-08T21:50:59.704Z,12.60
2023-04-08T21:53:26.520Z,10.30
2023-04-08T21:55:55.682Z,13.47
2023-04-08T21:58:22.415Z,10.60
2023-04-08T22:00:50.741Z,10.50
2023-04-08T22:03:20.131Z,10.20
2023-04-08T22:05:47.001Z,11.07
2023-04-08T22:08:14.655Z,11.43
2023-04-08T22:10:42.044Z,11.23
2023-04-08T22:13:10.209Z,10.17
2023-04-08T22:15:37.515Z,10.30
2023-04-08T22:18:05.059Z,9.80
2023-04-08T22:20:32.318Z,10.07
2023-04-08T22:23:01.738Z,10.73
2023-04-08T22:25:28.548Z,11.97
2023-04-08T22:27:56.141Z,9.77
2023-04-08T22:30:23.382Z,11.77
2023-04-08T22:32:52.640Z,11.77
2023-04-08T22:35:19.582Z,11.63
2023-04-08T22:37:46.403Z,13.30
2023-04-08T22:40:13.316Z,13.13
2023-04-08T22:42:40.642Z,11.50
2023-04-08T22:45:07.846Z,13.40
2023-04-08T22:47:35.088Z,11.10
2023-04-08T22:50:02.291Z,11.77
2023-04-08T22:52:29.078Z,11.93
2023-04-08T22:54:56.206Z,10.10
2023-04-08T22:57:23.125Z,11.77
2023-04-08T22:59:49.926Z,13.23
2023-04-08T23:02:17.221Z,11.30
2023-04-08T23:04:46.314Z,10.47
2023-04-08T23:07:13.122Z,10.80
2023-04-08T23:09:42.172Z,13.43
2023-04-08T23:12:08.954Z,12.53
2023-04-08T23:14:36.154Z,14.27
2023-04-08T23:17:05.386Z,13.13
2023-04-08T23:19:32.356Z,15.10
2023-04-08T23:21:59.147Z,14.53
2023-04-08T23:24:26.090Z,17.87
2023-04-08T23:26:52.864Z,16.80
2023-04-08T23:29:22.125Z,18.70
2023-04-08T23:31:48.881Z,17.63
2023-04-08T23:34:15.644Z,15.60
2023-04-08T23:36:42.370Z,16.30
2023-04-08T23:39:11.388Z,15.17
2023-04-08T23:41:38.195Z,13.73
2023-04-08T23:44:05.356Z,17.30
2023-04-08T23:46:32.159Z,15.50
2023-04-08T23:48:58.909Z,14.83
2023-04-08T23:51:26.691Z,16.23
2023-04-08T23:53:53.923Z,17.73
2023-04-08T23:56:20.703Z,15.03
2023-04-08T23:58:47.481Z,15.27
